Time;durP1;ratioP1;P1;durP2;ratioP2;P2;SDS_P1;SDS_P2;PMS_P1;PMS_P2;Temp;Humidity;BMP_temperature;BMP_pressure;BME280_temperature;BME280_humidity;BME280_pressure;Samples;Min_cycle;Max_cycle;Signal;HPM_P1;HPM_P2
2023/02/01 00:01:23;;;;;;;4.93;2.38;;;4.30;99.90;;;;;;7387124;19;20374;-87
2023/02/01 00:03:49;;;;;;;5.60;2.30;;;4.30;99.90;;;;;;7392229;19;20361;-81
2023/02/01 00:06:14;;;;;;;5.00;2.25;;;4.20;99.90;;;;;;7395370;19;20325;-81
2023/02/01 00:08:40;;;;;;;4.13;2.17;;;4.20;99.90;;;;;;7396271;19;20353;-89
2023/02/01 00:11:10;;;;;;;4.13;2.25;;;4.10;99.90;;;;;;7387903;19;20338;-80
2023/02/01 00:13:39;;;;;;;5.50;2.00;;;4.10;99.90;;;;;;7390028;19;20341;-81
2023/02/01 00:16:09;;;;;;;6.53;2.33;;;4.10;99.90;;;;;;7386181;19;21128;-84
2023/02/01 00:18:34;;;;;;;4.47;2.40;;;4.10;99.90;;;;;;7394095;19;20441;-79
2023/02/01 00:21:04;;;;;;;7.05;2.30;;;4.00;99.90;;;;;;7391099;19;26823;-79
2023/02/01 00:23:33;;;;;;;6.22;2.63;;;4.10;99.90;;;;;;7390959;19;20357;-83
2023/02/01 00:26:02;;;;;;;5.85;2.45;;;4.10;99.90;;;;;;7396469;19;20313;-87
2023/02/01 00:28:28;;;;;;;6.35;2.60;;;4.10;99.90;;;;;;7387454;19;20448;-76
2023/02/01 00:31:01;;;;;;;9.33;2.60;;;4.10;99.90;;;;;;7385411;19;20353;-81
2023/02/01 00:33:27;;;;;;;8.52;2.33;;;4.00;99.90;;;;;;7392207;19;20320;-81
2023/02/01 00:35:57;;;;;;;10.20;2.20;;;4.00;99.90;;;;;;7397380;19;20352;-84
2023/02/01 00:38:23;;;;;;;7.68;2.53;;;4.10;99.90;;;;;;7392135;19;20313;-91
2023/02/01 00:40:48;;;;;;;7.87;2.73;;;4.00;99.90;;;;;;7386415;19;21027;-83
2023/02/01 00:43:14;;;;;;;9.30;2.40;;;4.00;99.90;;;;;;7387713;19;20332;-85
2023/02/01 00:45:39;;;;;;;5.50;2.73;;;4.00;99.90;;;;;;7391455;19;20348;-89
2023/02/01 00:48:05;;;;;;;7.70;2.92;;;4.00;99.90;;;;;;7394345;19;20878;-80
2023/02/01 00:50:31;;;;;;;7.53;2.47;;;4.00;99.90;;;;;;7389711;19;20349;-82
2023/02/01 00:52:56;;;;;;;7.97;2.95;;;4.00;99.90;;;;;;7392919;19;20332;-84
2023/02/01 00:55:22;;;;;;;7.67;2.70;;;4.00;99.90;;;;;;7392005;19;20878;-81
2023/02/01 00:57:47;;;;;;;7.55;2.78;;;4.00;99.90;;;;;;7397453;19;20352;-85
2023/02/01 01:00:14;;;;;;;4.13;2.43;;;3.90;99.90;;;;;;7392311;19;21068;-87
2023/02/01 01:02:39;;;;;;;7.95;2.55;;;3.90;99.90;;;;;;7396219;19;20419;-81
2023/02/01 01:05:05;;;;;;;6.55;2.63;;;3.90;99.90;;;;;;7391448;19;20696;-82
2023/02/01 01:07:31;;;;;;;5.37;2.20;;;3.90;99.90;;;;;;7392035;19;20336;-82
2023/02/01 01:09:56;;;;;;;9.82;2.83;;;3.90;99.90;;;;;;7391277;19;20364;-85
2023/02/01 01:12:22;;;;;;;10.87;2.87;;;3.80;99.90;;;;;;7397829;19;20308;-87
2023/02/01 01:14:47;;;;;;;5.25;2.63;;;3.80;99.90;;;;;;7398908;19;20363;-84
2023/02/01 01:17:13;;;;;;;7.03;2.43;;;3.80;99.90;;;;;;7399602;19;20320;-83
2023/02/01 01:19:39;;;;;;;6.32;2.42;;;3.80;99.90;;;;;;7394245;19;20491;-90
2023/02/01 01:22:04;;;;;;;8.35;2.70;;;3.80;99.90;;;;;;7391382;19;20325;-88
2023/02/01 01:24:30;;;;;;;9.40;2.67;;;3.70;99.90;;;;;;7392894;19;20341;-89
2023/02/01 01:26:56;;;;;;;7.25;2.58;;;3.70;99.90;;;;;;7364165;19;20397;-89
2023/02/01 01:29:23;;;;;;;5.93;2.50;;;3.70;99.90;;;;;;7393717;19;20384;-85
2023/02/01 01:31:49;;;;;;;7.53;2.63;;;3.60;99.90;;;;;;7390182;19;20434;-82
2023/02/01 01:34:14;;;;;;;8.93;3.00;;;3.60;99.90;;;;;;7393942;19;20317;-90
2023/02/01 01:36:41;;;;;;;7.30;2.90;;;3.60;99.90;;;;;;7394285;19;20337;-84
2023/02/01 01:39:07;;;;;;;6.97;2.45;;;3.60;99.90;;;;;;7395828;19;20329;-89
2023/02/01 01:41:33;;;;;;;4.90;2.67;;;3.60;99.90;;;;;;7391746;19;20345;-85
2023/02/01 01:44:26;;;;;;;8.80;2.80;;;3.60;99.90;;;;;;7391636;19;20320;-86
2023/02/01 01:46:52;;;;;;;7.10;2.43;;;3.70;99.90;;;;;;7284397;19;2004389;-83
2023/02/01 01:49:20;;;;;;;10.25;2.30;;;3.80;99.90;;;;;;7383171;19;20387;-84
2023/02/01 01:52:04;;;;;;;9.23;3.03;;;3.80;99.90;;;;;;7390521;19;21310;-80
2023/02/01 01:54:33;;;;;;;5.75;2.60;;;3.90;99.90;;;;;;7393211;19;20342;-82
2023/02/01 01:57:03;;;;;;;5.60;2.42;;;3.90;99.90;;;;;;7395888;19;20320;-78
2023/02/01 01:59:29;;;;;;;9.50;2.80;;;3.90;99.90;;;;;;7395519;19;20329;-88
2023/02/01 02:01:55;;;;;;;6.27;2.53;;;3.90;99.90;;;;;;7391777;19;20340;-83
2023/02/01 02:04:20;;;;;;;6.25;2.60;;;3.80;99.90;;;;;;7393192;19;20362;-82
2023/02/01 02:07:00;;;;;;;9.30;3.30;;;3.80;99.90;;;;;;7394858;19;21109;-84
2023/02/01 02:09:26;;;;;;;10.50;3.28;;;3.80;99.90;;;;;;7393498;19;20328;-87
2023/02/01 02:11:51;;;;;;;7.00;2.85;;;3.80;99.90;;;;;;7390272;19;20965;-87
2023/02/01 02:14:19;;;;;;;6.75;2.60;;;3.80;99.90;;;;;;7392680;19;20333;-90
2023/02/01 02:17:10;;;;;;;5.82;2.72;;;3.80;99.90;;;;;;7391312;19;20321;-86
2023/02/01 02:19:57;;;;;;;8.33;2.40;;;3.70;99.90;;;;;;7395427;19;20328;-87
2023/02/01 02:23:00;;;;;;;5.50;2.53;;;3.70;99.90;;;;;;7289525;19;2004450;-90
2023/02/01 02:25:54;;;;;;;10.23;2.75;;;3.70;99.90;;;;;;7286970;19;2004987;-88
2023/02/01 02:28:58;;;;;;;9.63;2.88;;;3.70;99.90;;;;;;7278824;19;2004337;-78
2023/02/01 02:31:39;;;;;;;5.50;2.75;;;3.70;99.90;;;;;;7283381;19;2004237;-87
2023/02/01 02:34:25;;;;;;;11.45;3.13;;;3.70;99.90;;;;;;7390821;19;20339;-86
2023/02/01 02:37:10;;;;;;;7.22;2.78;;;3.70;99.90;;;;;;7288631;19;2004235;-86
2023/02/01 02:40:09;;;;;;;7.18;3.00;;;3.80;99.90;;;;;;7394622;19;20340;-87
2023/02/01 02:48:29;;;;;;;5.55;2.40;;;3.70;99.90;;;;;;7297677;19;2004238;-84
2023/02/01 03:05:12;;;;;;;4.17;2.20;;;3.60;99.90;;;;;;7313077;19;2004232;-87
2023/02/01 03:07:44;;;;;;;5.88;2.92;;;3.70;99.90;;;;;;7416296;19;20340;-87
2023/02/01 03:10:22;;;;;;;5.50;2.45;;;3.80;99.90;;;;;;7415446;19;20328;-87
2023/02/01 03:12:57;;;;;;;5.18;2.55;;;3.80;99.90;;;;;;7410332;19;20404;-88
2023/02/01 03:15:49;;;;;;;5.22;2.47;;;3.80;99.90;;;;;;7414206;19;20343;-87
2023/02/01 03:18:21;;;;;;;7.87;2.53;;;3.80;99.90;;;;;;7313502;19;2004165;-92
2023/02/01 03:20:48;;;;;;;4.40;2.37;;;3.80;99.90;;;;;;7414513;19;20319;-88
2023/02/01 03:23:15;;;;;;;4.63;2.40;;;3.80;99.90;;;;;;7415289;19;20325;-86
2023/02/01 03:25:40;;;;;;;6.13;2.40;;;3.80;99.90;;;;;;7409629;19;20316;-85
2023/02/01 03:28:08;;;;;;;9.00;2.47;;;3.80;99.90;;;;;;7415490;19;20349;-87
2023/02/01 03:30:41;;;;;;;6.20;2.45;;;3.80;99.90;;;;;;7415470;19;20320;-89
2023/02/01 03:33:21;;;;;;;6.90;2.47;;;3.80;99.90;;;;;;7313899;19;2004191;-86
2023/02/01 03:35:59;;;;;;;5.43;2.70;;;3.80;99.90;;;;;;7417285;19;20340;-88
2023/02/01 03:39:02;;;;;;;6.57;2.50;;;3.90;99.90;;;;;;7412715;19;20815;-86
2023/02/01 03:41:34;;;;;;;6.30;2.58;;;3.90;99.90;;;;;;7306102;19;2004470;-90
2023/02/01 03:44:13;;;;;;;8.60;2.80;;;3.90;99.90;;;;;;7412645;19;20928;-89
2023/02/01 03:46:51;;;;;;;8.38;2.97;;;4.00;99.90;;;;;;7310073;19;2004189;-87
2023/02/01 03:49:43;;;;;;;6.45;2.45;;;4.00;99.90;;;;;;7410699;19;20320;-88
2023/02/01 03:52:25;;;;;;;8.88;2.50;;;4.00;99.90;;;;;;7302842;19;2004365;-89
2023/02/01 03:54:51;;;;;;;10.37;2.37;;;4.00;99.90;;;;;;7407707;19;20345;-87
2023/02/01 03:57:20;;;;;;;7.53;2.38;;;4.00;99.90;;;;;;7415134;19;20313;-88
2023/02/01 03:59:48;;;;;;;8.20;2.72;;;4.10;99.90;;;;;;7413203;19;20388;-90
2023/02/01 04:02:13;;;;;;;5.97;2.63;;;4.10;99.90;;;;;;7409115;19;20313;-86
2023/02/01 04:04:39;;;;;;;5.80;2.60;;;4.10;99.90;;;;;;7406390;19;20339;-85
2023/02/01 04:07:05;;;;;;;9.02;2.58;;;4.10;99.90;;;;;;7398506;19;20344;-86
2023/02/01 04:09:31;;;;;;;5.85;2.33;;;4.10;99.90;;;;;;7399782;19;20317;-88
2023/02/01 04:11:58;;;;;;;6.13;2.73;;;4.10;99.90;;;;;;7391435;19;20405;-89
2023/02/01 04:14:23;;;;;;;4.25;2.28;;;4.10;99.90;;;;;;7392492;19;20329;-85
2023/02/01 04:16:49;;;;;;;7.35;2.88;;;4.10;99.90;;;;;;7393249;19;21238;-78
2023/02/01 04:19:16;;;;;;;8.47;2.73;;;4.10;99.90;;;;;;7391436;19;20851;-82
2023/02/01 04:21:41;;;;;;;5.95;2.80;;;4.10;99.90;;;;;;7393082;19;20329;-90
2023/02/01 04:24:08;;;;;;;7.17;2.27;;;4.10;99.90;;;;;;7395306;19;20350;-84
2023/02/01 04:26:36;;;;;;;8.02;2.28;;;4.20;99.90;;;;;;7394586;19;20407;-88
2023/02/01 04:29:02;;;;;;;6.93;2.35;;;4.20;99.90;;;;;;7393935;19;20336;-77
2023/02/01 04:31:27;;;;;;;6.40;2.47;;;4.20;99.90;;;;;;7385685;19;20315;-93
2023/02/01 04:33:54;;;;;;;7.18;2.70;;;4.20;99.90;;;;;;7391777;19;20755;-83
2023/02/01 04:36:21;;;;;;;8.15;2.58;;;4.20;99.90;;;;;;7389247;19;20313;-82
2023/02/01 04:38:50;;;;;;;7.45;2.42;;;4.20;99.90;;;;;;7390642;19;20362;-90
2023/02/01 04:41:18;;;;;;;7.25;2.72;;;4.20;99.90;;;;;;7386458;19;21193;-87
2023/02/01 04:43:47;;;;;;;6.27;2.37;;;4.20;99.90;;;;;;7390287;19;20403;-84
2023/02/01 04:46:13;;;;;;;9.13;2.73;;;4.20;99.90;;;;;;7392369;19;20328;-87
2023/02/01 04:48:39;;;;;;;6.50;2.80;;;4.20;99.90;;;;;;7392207;19;21006;-80
2023/02/01 04:51:04;;;;;;;5.90;2.67;;;4.20;99.90;;;;;;7387526;19;20321;-82
2023/02/01 04:53:30;;;;;;;8.23;2.80;;;4.20;99.90;;;;;;7386897;19;20324;-86
2023/02/01 04:56:02;;;;;;;5.80;2.60;;;4.30;99.90;;;;;;7388662;19;20325;-89
2023/02/01 04:58:27;;;;;;;5.32;2.53;;;4.30;99.90;;;;;;7388224;19;20361;-87
2023/02/01 05:00:54;;;;;;;7.57;2.60;;;4.30;99.90;;;;;;7385705;19;20693;-84
2023/02/01 05:03:20;;;;;;;5.88;2.60;;;4.30;99.90;;;;;;7386134;19;20332;-88
2023/02/01 05:05:48;;;;;;;6.63;2.50;;;4.30;99.90;;;;;;7392929;19;20320;-83
2023/02/01 05:08:15;;;;;;;6.28;2.25;;;4.30;99.90;;;;;;7392274;19;20325;-89
2023/02/01 05:10:41;;;;;;;8.88;2.78;;;4.30;99.90;;;;;;7393033;19;20320;-82
2023/02/01 05:15:52;;;;;;;8.68;2.70;;;4.30;99.90;;;;;;7290976;19;2004251;-82
2023/02/01 05:18:18;;;;;;;4.82;2.50;;;4.20;99.90;;;;;;7390288;19;20317;-79
2023/02/01 05:20:43;;;;;;;7.13;2.40;;;4.20;99.90;;;;;;7389939;19;20699;-83
2023/02/01 05:23:09;;;;;;;5.90;2.13;;;4.30;99.90;;;;;;7392013;19;20320;-83
2023/02/01 05:25:35;;;;;;;4.53;2.30;;;4.30;99.90;;;;;;7394904;19;20330;-83
2023/02/01 05:28:00;;;;;;;4.65;2.10;;;4.30;99.90;;;;;;7395360;19;20392;-86
2023/02/01 05:30:26;;;;;;;6.50;2.70;;;4.30;99.90;;;;;;7389292;19;20304;-86
2023/02/01 05:32:52;;;;;;;7.03;2.60;;;4.30;99.90;;;;;;7391351;19;20336;-86
2023/02/01 05:35:17;;;;;;;8.38;2.72;;;4.40;99.90;;;;;;7388898;19;20332;-81
2023/02/01 05:37:43;;;;;;;4.90;2.47;;;4.30;99.90;;;;;;7391801;19;20351;-86
2023/02/01 05:40:09;;;;;;;3.90;2.42;;;4.30;99.90;;;;;;7389737;19;20388;-88
2023/02/01 05:42:35;;;;;;;6.50;2.30;;;4.40;99.90;;;;;;7393820;19;20308;-83
2023/02/01 05:45:00;;;;;;;5.63;2.33;;;4.40;99.90;;;;;;7391143;19;20425;-87
2023/02/01 05:47:26;;;;;;;4.70;2.50;;;4.30;99.90;;;;;;7393876;19;20328;-82
2023/02/01 05:49:52;;;;;;;6.13;2.60;;;4.30;99.90;;;;;;7392394;19;20875;-84
2023/02/01 05:52:19;;;;;;;6.33;2.70;;;4.30;99.90;;;;;;7389855;19;20309;-85
2023/02/01 05:54:46;;;;;;;7.25;2.60;;;4.40;99.90;;;;;;7389617;19;20360;-89
2023/02/01 05:57:12;;;;;;;6.10;2.53;;;4.40;99.90;;;;;;7391616;19;20325;-85
2023/02/01 05:59:40;;;;;;;5.35;2.22;;;4.40;99.90;;;;;;7391890;19;20332;-87
2023/02/01 06:02:10;;;;;;;8.13;2.58;;;4.40;99.90;;;;;;7385591;19;20328;-90
2023/02/01 06:04:35;;;;;;;6.63;2.50;;;4.40;99.90;;;;;;7392256;19;20324;-88
2023/02/01 06:07:01;;;;;;;5.43;2.47;;;4.40;99.90;;;;;;7392424;19;20338;-88
2023/02/01 06:09:28;;;;;;;8.02;2.67;;;4.40;99.90;;;;;;7391013;19;20448;-84
2023/02/01 06:11:54;;;;;;;4.65;2.60;;;4.40;99.90;;;;;;7388784;19;20854;-83
2023/02/01 06:14:22;;;;;;;9.20;3.20;;;4.40;99.90;;;;;;7309548;19;2004741;-83
2023/02/01 06:17:00;;;;;;;7.75;2.60;;;4.40;99.90;;;;;;7413377;19;20343;-83
2023/02/01 06:19:28;;;;;;;6.05;2.85;;;4.40;99.90;;;;;;7409064;19;20324;-80
2023/02/01 06:21:59;;;;;;;5.18;2.55;;;4.30;99.90;;;;;;7370643;19;20351;-82
2023/02/01 06:24:44;;;;;;;5.03;2.75;;;4.30;99.90;;;;;;7404635;19;20324;-84
2023/02/01 06:27:13;;;;;;;5.45;2.60;;;4.30;99.90;;;;;;7412835;19;20377;-85
2023/02/01 06:29:46;;;;;;;7.05;2.80;;;4.20;99.90;;;;;;7385560;19;20345;-83
2023/02/01 06:32:14;;;;;;;9.32;2.75;;;4.20;99.90;;;;;;7389529;19;20344;-84
2023/02/01 06:34:40;;;;;;;7.87;2.83;;;4.10;99.90;;;;;;7406848;19;20346;-83
2023/02/01 06:37:30;;;;;;;6.60;2.80;;;4.00;99.90;;;;;;7410226;19;20308;-86
2023/02/01 06:39:56;;;;;;;5.17;2.60;;;4.00;99.90;;;;;;7291810;19;2011000;-80
2023/02/01 06:42:32;;;;;;;8.55;3.13;;;4.00;99.90;;;;;;7361726;19;20358;-87
2023/02/01 06:45:08;;;;;;;9.40;2.83;;;4.00;99.90;;;;;;7392108;19;20340;-80
2023/02/01 06:47:53;;;;;;;6.35;2.60;;;3.90;99.90;;;;;;7394421;19;20301;-85
2023/02/01 06:50:27;;;;;;;6.18;3.05;;;3.90;99.90;;;;;;7367561;19;20316;-85
2023/02/01 06:53:03;;;;;;;8.63;3.20;;;3.80;99.90;;;;;;7413542;19;20333;-86
2023/02/01 06:55:54;;;;;;;7.68;2.97;;;3.80;99.90;;;;;;7413003;19;21216;-85
2023/02/01 06:58:55;;;;;;;6.53;2.75;;;3.80;99.90;;;;;;7284723;19;2004352;-85
2023/02/01 07:01:33;;;;;;;6.95;3.08;;;3.80;99.90;;;;;;7342154;19;20349;-83
2023/02/01 07:04:22;;;;;;;9.10;3.05;;;3.70;99.90;;;;;;7373155;19;20316;-83
2023/02/01 07:07:35;;;;;;;5.80;2.67;;;3.80;99.90;;;;;;7360782;19;20336;-87
2023/02/01 07:10:03;;;;;;;6.43;2.85;;;3.80;99.90;;;;;;7285224;19;2004188;-82
2023/02/01 07:12:42;;;;;;;5.85;2.55;;;3.90;99.90;;;;;;7395853;19;20361;-84
2023/02/01 07:15:27;;;;;;;7.57;2.50;;;3.80;99.90;;;;;;7413094;19;20391;-84
2023/02/01 07:18:19;;;;;;;5.72;2.67;;;3.90;99.90;;;;;;7391491;19;20359;-80
2023/02/01 07:21:17;;;;;;;8.60;2.78;;;3.90;99.90;;;;;;7313866;19;2004548;-86
2023/02/01 07:24:46;;;;;;;4.63;2.58;;;3.90;99.90;;;;;;7322683;19;20317;-81
2023/02/01 07:27:39;;;;;;;8.60;2.55;;;3.90;99.90;;;;;;7240592;19;2004279;-83
2023/02/01 07:30:41;;;;;;;6.88;2.58;;;4.00;99.90;;;;;;7415697;19;20342;-85
2023/02/01 07:33:45;;;;;;;6.95;2.95;;;4.00;99.90;;;;;;7068848;19;2004484;-84
2023/02/01 07:36:29;;;;;;;6.38;2.47;;;4.10;99.90;;;;;;7374356;19;20880;-80
2023/02/01 07:42:48;;;;;;;7.47;3.72;;;4.20;99.90;;;;;;7400096;19;20352;-85
2023/02/01 07:46:18;;;;;;;4.20;2.38;;;4.20;99.90;;;;;;7393194;19;20325;-87
2023/02/01 07:48:44;;;;;;;7.37;2.87;;;4.20;99.90;;;;;;7389923;19;20846;-90
2023/02/01 07:51:11;;;;;;;7.43;2.50;;;4.20;99.90;;;;;;7384084;19;20397;-90
2023/02/01 07:53:37;;;;;;;5.47;2.50;;;4.20;99.90;;;;;;7390266;19;20373;-92
2023/02/01 07:56:03;;;;;;;9.93;3.08;;;4.30;99.90;;;;;;7390865;19;20348;-86
2023/02/01 07:58:31;;;;;;;9.83;3.10;;;4.20;99.90;;;;;;7383936;19;20308;-88
2023/02/01 08:03:54;;;;;;;7.78;2.85;;;4.20;99.90;;;;;;7286611;19;2004240;-83
2023/02/01 08:06:19;;;;;;;7.75;2.80;;;4.20;99.90;;;;;;7390719;19;20337;-82
2023/02/01 08:08:47;;;;;;;7.80;2.67;;;4.20;99.90;;;;;;7385964;19;20317;-83
2023/02/01 08:11:13;;;;;;;8.20;2.90;;;4.20;99.90;;;;;;7391931;19;20381;-82
2023/02/01 08:13:39;;;;;;;7.38;2.63;;;4.20;99.90;;;;;;7390758;19;20311;-84
2023/02/01 08:16:06;;;;;;;8.47;3.00;;;4.10;99.90;;;;;;7388845;19;20309;-82
2023/02/01 08:18:32;;;;;;;5.22;2.60;;;4.10;99.90;;;;;;7389862;19;20309;-81
2023/02/01 08:21:06;;;;;;;6.83;2.60;;;4.10;99.90;;;;;;7389136;19;20324;-81
2023/02/01 08:23:35;;;;;;;6.57;2.97;;;4.10;99.90;;;;;;7389571;19;20419;-81
2023/02/01 08:26:08;;;;;;;6.60;2.78;;;4.10;99.90;;;;;;7390791;19;20342;-81
2023/02/01 08:28:34;;;;;;;6.45;2.95;;;4.20;99.90;;;;;;7391018;19;20301;-82
2023/02/01 08:31:04;;;;;;;7.80;2.80;;;4.20;99.90;;;;;;7366643;19;20285;-84
2023/02/01 08:33:37;;;;;;;7.30;2.67;;;4.30;99.90;;;;;;7387744;19;20333;-84
2023/02/01 08:36:15;;;;;;;7.10;2.75;;;4.40;99.90;;;;;;7395673;19;20320;-88
2023/02/01 08:38:41;;;;;;;6.40;2.63;;;4.40;99.90;;;;;;7394380;19;20315;-86
2023/02/01 08:41:08;;;;;;;7.20;2.90;;;4.40;99.90;;;;;;7393246;19;20317;-84
2023/02/01 08:43:33;;;;;;;6.10;3.28;;;4.40;99.90;;;;;;7393583;19;20326;-84
2023/02/01 08:45:59;;;;;;;7.82;2.97;;;4.40;99.90;;;;;;7391113;19;20841;-84
2023/02/01 08:48:25;;;;;;;6.90;2.83;;;4.20;99.90;;;;;;7391943;19;20320;-89
2023/02/01 08:50:50;;;;;;;7.13;3.30;;;4.20;99.90;;;;;;7403009;19;20388;-86
2023/02/01 08:53:16;;;;;;;6.67;3.10;;;4.20;99.90;;;;;;7397831;19;20345;-84
2023/02/01 08:55:46;;;;;;;7.85;3.13;;;4.00;99.90;;;;;;7390593;19;20316;-84
2023/02/01 08:58:13;;;;;;;5.68;2.78;;;4.00;99.90;;;;;;7393350;19;20332;-84
2023/02/01 09:00:38;;;;;;;5.57;2.87;;;4.00;99.90;;;;;;7396383;19;20333;-81
2023/02/01 09:03:04;;;;;;;7.03;2.72;;;4.00;99.90;;;;;;7395670;19;20309;-85
2023/02/01 09:05:31;;;;;;;4.57;2.90;;;3.90;99.90;;;;;;7396828;19;20329;-86
2023/02/01 09:07:57;;;;;;;4.88;2.90;;;3.90;99.90;;;;;;7394481;19;20320;-85
2023/02/01 09:10:22;;;;;;;9.23;3.00;;;3.90;99.90;;;;;;7397041;19;20351;-83
2023/02/01 09:12:49;;;;;;;7.13;2.53;;;4.00;99.90;;;;;;7397428;19;20357;-92
2023/02/01 09:15:15;;;;;;;9.40;3.08;;;4.00;99.90;;;;;;7396173;19;20329;-84
2023/02/01 09:17:43;;;;;;;7.47;2.83;;;4.00;99.90;;;;;;7398310;19;20318;-82
2023/02/01 09:20:09;;;;;;;4.83;2.63;;;3.90;99.90;;;;;;7400337;19;20304;-84
2023/02/01 09:22:35;;;;;;;4.10;2.50;;;3.90;99.90;;;;;;7401531;19;20309;-89
2023/02/01 09:25:01;;;;;;;5.97;3.00;;;3.90;99.90;;;;;;7396601;19;20671;-81
2023/02/01 09:27:29;;;;;;;5.35;3.25;;;3.90;99.90;;;;;;7399275;19;20399;-86
2023/02/01 09:29:54;;;;;;;6.95;2.90;;;3.90;99.90;;;;;;7404468;19;21075;-86
2023/02/01 09:32:21;;;;;;;6.32;2.70;;;4.00;99.90;;;;;;7396387;19;20341;-83
2023/02/01 09:34:46;;;;;;;5.22;2.92;;;3.90;99.90;;;;;;7398191;19;21009;-89
2023/02/01 09:37:12;;;;;;;5.60;3.37;;;3.90;99.90;;;;;;7396149;19;20309;-83
2023/02/01 09:39:38;;;;;;;6.30;3.38;;;3.90;99.90;;;;;;7397485;19;20746;-81
2023/02/01 09:42:40;;;;;;;8.87;2.80;;;3.90;99.90;;;;;;7396015;19;20319;-88
2023/02/01 09:45:30;;;;;;;4.25;2.72;;;3.80;99.90;;;;;;7294883;19;2004338;-90
2023/02/01 09:48:08;;;;;;;4.65;3.08;;;3.80;99.90;;;;;;7291840;19;2004408;-87
2023/02/01 09:50:35;;;;;;;3.83;2.53;;;3.80;99.90;;;;;;7388341;19;20308;-88
2023/02/01 09:53:09;;;;;;;6.07;2.77;;;3.80;99.90;;;;;;7393172;19;20332;-82
2023/02/01 09:55:48;;;;;;;4.18;2.40;;;3.80;99.90;;;;;;7395632;19;20316;-85
2023/02/01 09:58:37;;;;;;;5.05;2.33;;;3.80;99.90;;;;;;7289863;19;2004195;-91
2023/02/01 10:01:18;;;;;;;6.00;3.30;;;3.80;99.90;;;;;;7395161;19;20320;-82
2023/02/01 10:03:56;;;;;;;5.70;3.58;;;3.80;99.90;;;;;;7288305;19;2004401;-83
2023/02/01 10:06:55;;;;;;;11.18;4.70;;;3.70;99.90;;;;;;7392111;19;20328;-87
2023/02/01 10:10:04;;;;;;;5.25;2.95;;;3.70;99.90;;;;;;7292918;19;2004415;-91
2023/02/01 10:12:45;;;;;;;7.60;3.67;;;3.70;99.90;;;;;;7298404;19;2004172;-84
2023/02/01 10:15:48;;;;;;;6.03;3.03;;;3.60;99.90;;;;;;7297543;19;2004561;-88
2023/02/01 10:18:38;;;;;;;6.60;3.72;;;3.70;99.90;;;;;;7294403;19;2004081;-84
2023/02/01 10:21:28;;;;;;;4.68;2.92;;;3.70;99.90;;;;;;7393874;19;20338;-90
2023/02/01 10:24:13;;;;;;;5.68;3.05;;;3.60;99.90;;;;;;7291403;19;2004312;-81
2023/02/01 10:26:55;;;;;;;4.07;2.73;;;3.60;99.90;;;;;;7394523;19;20770;-82
2023/02/01 10:29:22;;;;;;;5.22;3.15;;;3.70;99.90;;;;;;7291034;19;2004207;-85
2023/02/01 10:31:48;;;;;;;5.28;2.63;;;3.70;99.90;;;;;;7391798;19;20316;-80
2023/02/01 10:34:30;;;;;;;3.70;2.23;;;3.70;99.90;;;;;;7392668;19;20312;-83
2023/02/01 10:37:18;;;;;;;3.40;2.20;;;3.60;99.90;;;;;;7394707;19;20321;-87
2023/02/01 10:39:48;;;;;;;6.88;3.22;;;3.70;99.90;;;;;;7293479;19;2004234;-84
2023/02/01 10:42:14;;;;;;;3.57;2.30;;;3.70;99.90;;;;;;7392814;19;20336;-82
2023/02/01 10:44:43;;;;;;;2.97;2.10;;;3.70;99.90;;;;;;7399452;19;20337;-84
2023/02/01 10:47:10;;;;;;;2.80;2.33;;;3.70;99.90;;;;;;7398108;19;20325;-84
2023/02/01 10:49:47;;;;;;;4.15;2.10;;;3.80;99.90;;;;;;7396170;19;20301;-85
2023/02/01 10:52:15;;;;;;;4.68;2.33;;;3.70;99.90;;;;;;7293817;19;2004396;-89
2023/02/01 10:54:41;;;;;;;4.10;2.47;;;3.80;99.90;;;;;;7399306;19;20337;-84
2023/02/01 10:57:21;;;;;;;2.53;2.10;;;3.90;99.90;;;;;;7400590;19;20308;-88
2023/02/01 10:59:53;;;;;;;4.15;2.10;;;4.00;99.90;;;;;;7295037;19;2004238;-87
2023/02/01 11:02:34;;;;;;;1.88;1.77;;;4.00;99.90;;;;;;7400005;19;20305;-88
2023/02/01 11:05:04;;;;;;;3.63;1.73;;;4.00;99.90;;;;;;7403752;19;20327;-82
2023/02/01 11:07:30;;;;;;;3.55;1.60;;;3.90;99.90;;;;;;7400718;19;20364;-83
2023/02/01 11:09:57;;;;;;;2.33;1.50;;;4.00;99.90;;;;;;7404190;19;20335;-84
2023/02/01 11:12:35;;;;;;;2.58;1.38;;;3.90;99.90;;;;;;7401501;19;20654;-82
2023/02/01 11:15:13;;;;;;;2.10;1.77;;;3.90;99.90;;;;;;7400492;19;20337;-82
2023/02/01 11:17:46;;;;;;;1.80;1.30;;;3.90;99.90;;;;;;7402154;19;20297;-87
2023/02/01 11:20:33;;;;;;;1.23;1.20;;;3.90;99.90;;;;;;7300299;19;2004467;-83
2023/02/01 11:22:59;;;;;;;2.55;1.60;;;3.80;99.90;;;;;;7403034;19;20337;-84
2023/02/01 11:25:25;;;;;;;2.08;1.80;;;4.00;99.90;;;;;;7402780;19;20324;-88
2023/02/01 11:27:51;;;;;;;2.33;1.40;;;4.10;99.90;;;;;;7403399;19;20335;-85
2023/02/01 11:30:31;;;;;;;2.42;1.63;;;4.10;99.90;;;;;;7399144;19;20308;-84
2023/02/01 11:32:59;;;;;;;3.20;1.90;;;4.20;99.90;;;;;;7400508;19;20321;-83
2023/02/01 11:35:25;;;;;;;3.43;1.70;;;4.40;99.90;;;;;;7401733;19;20328;-81
2023/02/01 11:37:59;;;;;;;2.30;1.60;;;4.40;99.90;;;;;;7402264;19;20355;-85
2023/02/01 11:40:36;;;;;;;2.40;2.20;;;4.60;99.90;;;;;;7402004;19;20328;-89
2023/02/01 11:43:22;;;;;;;3.97;1.70;;;4.60;99.90;;;;;;7405130;19;20339;-86
2023/02/01 11:45:59;;;;;;;1.70;1.48;;;4.60;99.90;;;;;;7314502;19;2004015;-84
2023/02/01 11:48:29;;;;;;;3.00;1.70;;;4.80;99.90;;;;;;7407764;19;20340;-87
2023/02/01 11:51:04;;;;;;;3.83;2.30;;;4.80;99.90;;;;;;7419889;19;20329;-87
2023/02/01 11:53:48;;;;;;;2.45;1.80;;;4.90;99.90;;;;;;7416561;19;20356;-90
2023/02/01 11:56:25;;;;;;;5.07;1.70;;;5.00;99.90;;;;;;7312253;19;2003977;-92
2023/02/01 11:59:32;;;;;;;3.40;2.03;;;5.20;99.90;;;;;;7417903;19;20337;-87
2023/02/01 12:02:18;;;;;;;5.07;2.43;;;5.30;99.90;;;;;;7314902;19;2004205;-87
2023/02/01 12:05:11;;;;;;;3.37;2.57;;;5.30;99.90;;;;;;7312942;19;2004146;-87
2023/02/01 12:07:55;;;;;;;4.33;1.83;;;5.40;99.90;;;;;;7417151;19;20320;-86
2023/02/01 12:10:27;;;;;;;4.47;2.08;;;5.60;99.90;;;;;;7314244;19;2004390;-87
2023/02/01 12:13:01;;;;;;;2.72;1.70;;;5.90;99.90;;;;;;7415050;19;20328;-88
2023/02/01 12:15:54;;;;;;;5.60;2.20;;;5.90;99.90;;;;;;7415800;19;20332;-87
2023/02/01 12:18:30;;;;;;;3.30;2.10;;;5.90;99.90;;;;;;7315404;19;2004203;-86
2023/02/01 12:21:03;;;;;;;3.25;1.90;;;5.80;99.90;;;;;;7419788;19;20343;-89
2023/02/01 12:23:45;;;;;;;5.30;2.13;;;5.90;99.90;;;;;;7418405;19;20340;-87
2023/02/01 12:26:49;;;;;;;2.67;1.70;;;5.80;99.90;;;;;;7415551;19;20328;-87
2023/02/01 12:29:48;;;;;;;3.78;2.08;;;5.80;99.90;;;;;;7212309;19;2004273;-91
2023/02/01 12:32:21;;;;;;;3.00;1.80;;;5.70;99.90;;;;;;7394785;19;20333;-86
2023/02/01 12:34:53;;;;;;;2.95;1.65;;;5.70;99.90;;;;;;7418591;19;20324;-88
2023/02/01 12:37:31;;;;;;;4.72;2.75;;;5.60;99.90;;;;;;7418780;19;20317;-87
2023/02/01 12:40:30;;;;;;;2.20;1.77;;;5.60;99.90;;;;;;7420175;19;20321;-87
2023/02/01 12:43:04;;;;;;;5.97;1.88;;;5.60;99.90;;;;;;7314754;19;2004049;-90
2023/02/01 12:45:43;;;;;;;4.50;1.90;;;5.60;99.90;;;;;;7414276;19;20317;-87
2023/02/01 12:48:37;;;;;;;3.87;1.70;;;5.70;99.90;;;;;;7417397;19;20333;-88
2023/02/01 12:51:07;;;;;;;4.15;1.90;;;5.50;99.90;;;;;;7313509;19;2003994;-87
2023/02/01 12:53:42;;;;;;;5.13;1.85;;;5.50;99.90;;;;;;7416980;19;20327;-87
2023/02/01 12:56:11;;;;;;;2.05;1.55;;;5.60;99.90;;;;;;7418982;19;20345;-88
2023/02/01 12:58:48;;;;;;;3.73;1.77;;;5.50;99.90;;;;;;7420096;19;20312;-88
2023/02/01 13:01:14;;;;;;;2.30;1.60;;;5.60;99.90;;;;;;7313130;19;2004145;-89
2023/02/01 13:04:20;;;;;;;2.17;1.50;;;5.60;99.90;;;;;;7418031;19;20507;-88
2023/02/01 13:07:10;;;;;;;2.50;1.48;;;5.70;99.90;;;;;;7212221;19;2004176;-88
2023/02/01 13:09:41;;;;;;;4.25;1.98;;;5.80;99.90;;;;;;7417237;19;20318;-86
2023/02/01 13:12:16;;;;;;;3.35;1.70;;;5.80;99.90;;;;;;7417487;19;20322;-87
2023/02/01 13:14:52;;;;;;;6.50;2.10;;;5.80;99.90;;;;;;7416687;19;20342;-92
2023/02/01 13:17:28;;;;;;;2.60;1.83;;;5.80;99.90;;;;;;7313406;19;2004773;-86
2023/02/01 13:20:06;;;;;;;2.45;1.67;;;5.80;99.90;;;;;;7416857;19;20313;-87
2023/02/01 13:22:41;;;;;;;3.00;1.60;;;5.80;99.90;;;;;;7413335;19;20335;-91
2023/02/01 13:25:18;;;;;;;2.63;1.40;;;5.80;99.90;;;;;;7414429;19;20321;-88
2023/02/01 13:27:44;;;;;;;4.45;1.67;;;5.70;99.90;;;;;;7312610;19;2004263;-89
2023/02/01 13:30:30;;;;;;;3.47;1.90;;;5.60;99.90;;;;;;7413482;19;20310;-89
2023/02/01 13:33:29;;;;;;;2.90;1.50;;;5.60;99.90;;;;;;7309558;19;2004086;-87
2023/02/01 13:36:04;;;;;;;2.20;1.67;;;5.50;99.90;;;;;;7312999;19;2004260;-88
2023/02/01 13:38:39;;;;;;;3.50;1.95;;;5.50;99.90;;;;;;7416610;19;20339;-90
2023/02/01 13:41:26;;;;;;;1.63;1.50;;;5.50;99.90;;;;;;7415411;19;20344;-87
2023/02/01 13:43:54;;;;;;;3.28;1.60;;;5.50;99.90;;;;;;7310466;19;2004076;-87
2023/02/01 13:46:20;;;;;;;3.95;1.98;;;5.50;99.90;;;;;;7415749;19;20339;-92
2023/02/01 13:48:51;;;;;;;3.40;2.20;;;5.50;99.90;;;;;;7414535;19;20325;-88
2023/02/01 13:51:34;;;;;;;6.15;2.42;;;5.50;99.90;;;;;;7391342;19;20296;-90
2023/02/01 13:54:00;;;;;;;3.17;1.90;;;5.40;99.90;;;;;;7415889;19;20319;-85
2023/02/01 13:56:25;;;;;;;4.70;2.22;;;5.40;99.90;;;;;;7415349;19;20337;-87